Time;durP1;ratioP1;P1;durP2;ratioP2;P2;SDS_P1;SDS_P2;PMS_P1;PMS_P2;Temp;Humidity;BMP_temperature;BMP_pressure;BME280_temperature;BME280_humidity;BME280_pressure;Samples;Min_cycle;Max_cycle;Signal;HPM_P1;HPM_P2
2023/10/25 16:56:32;;;;;;;31.75;7.53;;;;;;;18.35;89.62;94121.03;5126926;27;20330;-70
2023/10/25 16:58:57;;;;;;;49.40;8.93;;;;;;;18.44;89.73;94134.56;5127327;27;20177;-71
2023/10/25 17:01:23;;;;;;;40.38;8.93;;;;;;;18.52;89.46;94135.84;5109093;27;20165;-73
2023/10/25 17:03:48;;;;;;;37.00;7.55;;;;;;;18.60;89.54;94132.63;5127613;27;20168;-71
2023/10/25 17:06:14;;;;;;;45.33;9.38;;;;;;;18.66;89.41;94134.19;5108105;27;20237;-71
2023/10/25 17:08:40;;;;;;;32.70;7.68;;;;;;;18.70;89.66;94135.22;5126677;27;20160;-70
2023/10/25 17:11:08;;;;;;;50.05;8.75;;;;;;;18.73;89.89;94140.78;5127607;28;20785;-70
2023/10/25 17:13:33;;;;;;;37.88;7.78;;;;;;;18.66;90.30;94124.31;5135400;27;20180;-70
2023/10/25 17:16:02;;;;;;;43.17;10.25;;;;;;;-146.42;100.00;61981.06;5126352;27;20558;-70
2023/10/25 17:18:32;;;;;;;58.50;10.63;;;;;;;-146.42;100.00;61981.06;5126579;27;20615;-70
2023/10/25 17:20:59;;;;;;;47.03;9.40;;;;;;;-146.42;100.00;61981.06;5124942;27;20194;-70
2023/10/25 17:23:26;;;;;;;45.60;8.77;;;;;;;-146.42;100.00;61981.06;5126428;27;20172;-70
2023/10/25 17:25:52;;;;;;;48.53;8.82;;;;;;;-146.42;100.00;61981.06;5108295;27;20534;-70
2023/10/25 17:28:18;;;;;;;46.78;8.73;;;;;;;-146.42;100.00;61981.06;5126614;27;20168;-71
2023/10/25 17:30:44;;;;;;;52.03;8.85;;;;;;;-146.42;100.00;61981.06;5126862;27;20519;-70
2023/10/25 17:33:12;;;;;;;43.95;9.43;;;;;;;-146.42;100.00;61981.06;5126689;27;20557;-70
2023/10/25 17:35:38;;;;;;;52.65;9.25;;;;;;;-146.42;100.00;61981.06;5126383;27;20199;-70
2023/10/25 17:38:04;;;;;;;38.42;9.82;;;;;;;-146.42;100.00;61981.06;5126695;27;20279;-70
2023/10/25 17:40:30;;;;;;;86.80;32.78;;;;;;;-146.42;100.00;61981.06;5125491;27;20900;-70
2023/10/25 17:42:58;;;;;;;79.88;35.50;;;;;;;-146.42;100.00;61981.06;5126660;27;20177;-70
2023/10/25 17:45:27;;;;;;;65.18;24.30;;;;;;;-146.42;100.00;61981.06;5126540;27;20621;-70
2023/10/25 17:47:53;;;;;;;52.85;15.93;;;;;;;-146.42;100.00;61981.06;5125547;27;20161;-70
2023/10/25 17:50:21;;;;;;;49.50;11.23;;;;;;;-146.42;100.00;61981.06;5125105;27;20229;-70
2023/10/25 17:52:47;;;;;;;52.50;11.30;;;;;;;-146.42;100.00;61981.06;5126014;27;20471;-70
2023/10/25 17:55:14;;;;;;;52.35;14.90;;;;;;;-146.42;100.00;61981.06;5125164;27;20873;-70
2023/10/25 17:57:40;;;;;;;59.58;16.27;;;;;;;-146.42;100.00;61981.06;5124489;27;20217;-70
2023/10/25 18:00:06;;;;;;;36.35;9.85;;;;;;;-146.42;100.00;61981.06;5125807;27;20172;-70
2023/10/25 18:02:33;;;;;;;34.90;8.38;;;;;;;-146.42;100.00;61981.06;5123784;27;20648;-69
2023/10/25 18:04:58;;;;;;;28.48;7.80;;;;;;;-146.42;100.00;61981.06;5125349;27;20172;-69
2023/10/25 18:07:24;;;;;;;37.55;7.25;;;;;;;-146.42;100.00;61981.06;5114655;27;20581;-69
2023/10/25 18:09:52;;;;;;;32.70;7.78;;;;;;;-146.42;100.00;61981.06;5093528;28;20284;-69
2023/10/25 18:12:18;;;;;;;33.00;8.57;;;;;;;-146.42;100.00;61981.06;5112148;28;20258;-71
2023/10/25 18:14:43;;;;;;;28.63;6.13;;;;;;;-146.42;100.00;61981.06;5111650;28;20977;-70
2023/10/25 18:17:09;;;;;;;31.20;5.72;;;;;;;-146.42;100.00;61981.06;5112255;28;20628;-70
2023/10/25 18:19:35;;;;;;;15.85;4.35;;;;;;;-146.42;100.00;61981.06;5111867;28;20527;-71
2023/10/25 18:22:03;;;;;;;35.20;6.60;;;;;;;-146.42;100.00;61981.06;5110181;28;20425;-71
2023/10/25 18:24:31;;;;;;;27.27;5.70;;;;;;;-146.42;100.00;61981.06;5090927;28;20410;-70
2023/10/25 18:26:57;;;;;;;28.25;6.38;;;;;;;-146.42;100.00;61981.06;5111541;28;20158;-70
2023/10/25 18:29:23;;;;;;;34.97;6.28;;;;;;;-146.42;100.00;61981.06;5091384;28;20781;-70
2023/10/25 18:31:49;;;;;;;30.38;6.65;;;;;;;-146.42;100.00;61981.06;5111588;28;20173;-70
2023/10/25 18:34:19;;;;;;;32.83;5.40;;;;;;;-146.42;100.00;61981.06;5093388;28;20193;-70
2023/10/25 18:36:46;;;;;;;32.92;5.47;;;;;;;-146.42;100.00;61981.06;5111708;28;20165;-71
2023/10/25 18:39:11;;;;;;;43.55;7.97;;;;;;;-146.42;100.00;61981.06;5111763;28;20169;-70
2023/10/25 18:41:38;;;;;;;35.58;7.38;;;;;;;-146.42;100.00;61981.06;5096022;28;20173;-70
2023/10/25 18:44:06;;;;;;;32.88;6.93;;;;;;;-146.42;100.00;61981.06;5112156;28;20703;-71
2023/10/25 18:46:32;;;;;;;29.35;6.25;;;;;;;-146.42;100.00;61981.06;5111613;27;20214;-71
2023/10/25 18:48:58;;;;;;;33.58;6.15;;;;;;;-146.42;100.00;61981.06;5111957;28;20237;-70
2023/10/25 18:51:23;;;;;;;35.55;6.53;;;;;;;-146.42;100.00;61981.06;5111994;28;20192;-70
2023/10/25 18:53:49;;;;;;;30.90;6.50;;;;;;;-146.42;100.00;61981.06;5111319;28;20252;-70
2023/10/25 18:56:15;;;;;;;34.00;6.93;;;;;;;-146.42;100.00;61981.06;5111375;28;20278;-70
2023/10/25 18:58:40;;;;;;;37.85;7.13;;;;;;;-146.42;100.00;61981.06;5111620;28;20165;-70
2023/10/25 19:01:17;;;;;;;33.40;7.93;;;;;;;-146.42;100.00;61981.06;5110555;28;20449;-71
2023/10/25 19:03:43;;;;;;;36.83;6.68;;;;;;;-146.42;100.00;61981.06;5111161;28;20266;-72
2023/10/25 19:06:09;;;;;;;28.48;6.35;;;;;;;-146.42;100.00;61981.06;5114234;27;20183;-71
2023/10/25 19:08:35;;;;;;;26.27;6.63;;;;;;;-146.42;100.00;61981.06;5110307;28;20177;-71
2023/10/25 19:11:02;;;;;;;31.00;6.53;;;;;;;-146.42;100.00;61981.06;5110213;28;20406;-71
2023/10/25 19:13:28;;;;;;;33.75;6.53;;;;;;;-146.42;100.00;61981.06;5111314;28;20787;-71
2023/10/25 19:15:54;;;;;;;28.38;7.47;;;;;;;-146.42;100.00;61981.06;5109899;27;20522;-71
2023/10/25 19:18:20;;;;;;;28.30;5.68;;;;;;;-146.42;100.00;61981.06;5109689;28;20181;-71
2023/10/25 19:20:46;;;;;;;32.90;6.43;;;;;;;-146.42;100.00;61981.06;5110206;28;20713;-71
2023/10/25 19:23:11;;;;;;;28.15;6.38;;;;;;;-146.42;100.00;61981.06;5110683;28;20251;-71
2023/10/25 19:25:37;;;;;;;27.27;5.32;;;;;;;-146.42;100.00;61981.06;5109518;28;20183;-71
2023/10/25 19:28:03;;;;;;;19.70;4.75;;;;;;;-146.42;100.00;61981.06;5094439;27;20184;-71
2023/10/25 19:30:29;;;;;;;25.95;5.28;;;;;;;-146.42;100.00;61981.06;5110586;28;20223;-72
2023/10/25 19:32:55;;;;;;;29.88;7.03;;;;;;;-146.42;100.00;61981.06;5109349;28;20395;-72
2023/10/25 19:35:20;;;;;;;30.20;6.50;;;;;;;-146.42;100.00;61981.06;5112191;27;20208;-72
2023/10/25 19:37:46;;;;;;;35.72;6.68;;;;;;;-146.42;100.00;61981.06;5110268;28;20172;-72
2023/10/25 19:40:11;;;;;;;32.65;6.07;;;;;;;-146.42;100.00;61981.06;5109906;28;20441;-71
2023/10/25 19:42:40;;;;;;;28.90;5.78;;;;;;;-146.42;100.00;61981.06;5111480;27;20655;-71
2023/10/25 19:45:06;;;;;;;24.15;5.28;;;;;;;-146.42;100.00;61981.06;5109467;28;20172;-72
2023/10/25 19:47:32;;;;;;;36.40;6.78;;;;;;;-146.42;100.00;61981.06;5110168;28;20173;-72
2023/10/25 19:49:57;;;;;;;38.50;7.67;;;;;;;-146.42;100.00;61981.06;5109011;28;20503;-70
2023/10/25 19:52:22;;;;;;;31.43;6.07;;;;;;;-146.42;100.00;61981.06;5109484;28;21245;-72
2023/10/25 19:54:48;;;;;;;41.30;7.20;;;;;;;-146.42;100.00;61981.06;5109637;28;20925;-70
2023/10/25 19:57:13;;;;;;;28.38;6.18;;;;;;;-146.42;100.00;61981.06;5110258;28;20164;-72
2023/10/25 19:59:39;;;;;;;27.60;5.65;;;;;;;-146.42;100.00;61981.06;5110131;28;20165;-72
2023/10/25 20:02:05;;;;;;;29.88;4.90;;;;;;;-146.42;100.00;61981.06;5110001;28;20691;-72
2023/10/25 20:04:30;;;;;;;31.45;6.47;;;;;;;-146.42;100.00;61981.06;5110082;28;20158;-72
2023/10/25 20:06:56;;;;;;;22.30;4.35;;;;;;;-146.42;100.00;61981.06;5110059;27;20170;-71
2023/10/25 20:09:21;;;;;;;30.98;5.82;;;;;;;-146.42;100.00;61981.06;5112319;27;20165;-71
2023/10/25 20:11:47;;;;;;;20.63;5.15;;;;;;;-146.42;100.00;61981.06;5110048;28;20176;-69
2023/10/25 20:14:12;;;;;;;25.42;5.47;;;;;;;-146.42;100.00;61981.06;5109409;28;20172;-69
2023/10/25 20:16:37;;;;;;;29.00;6.57;;;;;;;-146.42;100.00;61981.06;5108990;28;20517;-72
2023/10/25 20:19:03;;;;;;;18.08;4.50;;;;;;;-146.42;100.00;61981.06;5110059;28;20261;-70
2023/10/25 20:21:28;;;;;;;35.65;6.35;;;;;;;-146.42;100.00;61981.06;5109874;28;20172;-71
2023/10/25 20:23:59;;;;;;;23.75;5.28;;;;;;;-146.42;100.00;61981.06;5109375;28;20674;-71
2023/10/25 20:26:26;;;;;;;26.67;6.20;;;;;;;-146.42;100.00;61981.06;5109380;28;20165;-71
2023/10/25 20:28:51;;;;;;;38.00;8.45;;;;;;;-146.42;100.00;61981.06;5109771;28;20264;-71
2023/10/25 20:31:17;;;;;;;25.67;5.82;;;;;;;-146.42;100.00;61981.06;5109017;28;20256;-71
2023/10/25 20:33:43;;;;;;;31.48;6.97;;;;;;;-146.42;100.00;61981.06;5110368;28;20256;-71
2023/10/25 20:36:08;;;;;;;40.38;7.68;;;;;;;-146.42;100.00;61981.06;5110688;28;20771;-73
2023/10/25 20:38:34;;;;;;;17.35;5.28;;;;;;;-146.42;100.00;61981.06;5102254;27;20183;-71
2023/10/25 20:41:04;;;;;;;27.42;5.05;;;;;;;-146.42;100.00;61981.06;5108909;28;20656;-71
2023/10/25 20:43:30;;;;;;;37.67;6.70;;;;;;;-146.42;100.00;61981.06;5107396;28;20488;-71
2023/10/25 20:45:55;;;;;;;23.48;5.10;;;;;;;-146.42;100.00;61981.06;5092723;28;20177;-71
2023/10/25 20:48:20;;;;;;;29.00;7.18;;;;;;;-146.42;100.00;61981.06;5108567;28;20193;-72
2023/10/25 20:50:46;;;;;;;28.35;7.13;;;;;;;-146.42;100.00;61981.06;5107414;28;20234;-72
2023/10/25 20:53:11;;;;;;;28.35;5.60;;;;;;;-146.42;100.00;61981.06;5106549;28;20176;-72
2023/10/25 20:55:42;;;;;;;34.88;6.15;;;;;;;-146.42;100.00;61981.06;5108646;28;20229;-72
2023/10/25 20:58:07;;;;;;;29.20;6.97;;;;;;;-146.42;100.00;61981.06;5107332;28;20213;-73
2023/10/25 21:00:32;;;;;;;25.63;6.93;;;;;;;-146.42;100.00;61981.06;5108131;28;20273;-72
2023/10/25 21:02:58;;;;;;;32.17;6.97;;;;;;;-146.42;100.00;61981.06;5108561;28;20406;-73
2023/10/25 21:05:23;;;;;;;27.80;6.27;;;;;;;-146.42;100.00;61981.06;5089037;28;20800;-73
2023/10/25 21:07:49;;;;;;;34.50;6.63;;;;;;;-146.42;100.00;61981.06;5106989;28;20192;-73
2023/10/25 21:10:14;;;;;;;23.73;5.38;;;;;;;-146.42;100.00;61981.06;5108758;28;20179;-73
2023/10/25 21:12:40;;;;;;;42.22;7.68;;;;;;;-146.42;100.00;61981.06;5107874;28;20556;-72
2023/10/25 21:15:06;;;;;;;32.33;6.60;;;;;;;-146.42;100.00;61981.06;5106348;28;20433;-73
2023/10/25 21:17:31;;;;;;;32.95;7.50;;;;;;;-146.42;100.00;61981.06;5107563;28;20453;-72
2023/10/25 21:19:57;;;;;;;36.42;6.60;;;;;;;-146.42;100.00;61981.06;5123363;28;20557;-72
2023/10/25 21:22:22;;;;;;;34.72;8.02;;;;;;;-146.42;100.00;61981.06;5089088;28;20418;-73
2023/10/25 21:24:47;;;;;;;34.67;7.40;;;;;;;-146.42;100.00;61981.06;5114079;28;20431;-72
2023/10/25 21:27:14;;;;;;;32.38;5.75;;;;;;;-146.42;100.00;61981.06;5108355;28;20979;-69
2023/10/25 21:29:39;;;;;;;34.73;7.37;;;;;;;-146.42;100.00;61981.06;5107577;28;20775;-72
2023/10/25 21:32:05;;;;;;;28.33;5.70;;;;;;;-146.42;100.00;61981.06;5108398;28;20177;-70
2023/10/25 21:34:30;;;;;;;21.10;5.85;;;;;;;-146.42;100.00;61981.06;5107999;28;20173;-70
2023/10/25 21:36:55;;;;;;;25.25;6.20;;;;;;;-146.42;100.00;61981.06;5107585;28;20258;-72
2023/10/25 21:39:21;;;;;;;27.07;7.60;;;;;;;-146.42;100.00;61981.06;5105404;28;20415;-72
2023/10/25 21:41:46;;;;;;;37.78;6.53;;;;;;;-146.42;100.00;61981.06;5090934;28;20652;-71
2023/10/25 21:44:12;;;;;;;38.83;7.30;;;;;;;-146.42;100.00;61981.06;5114253;27;20406;-70
2023/10/25 21:46:37;;;;;;;25.17;6.53;;;;;;;-146.42;100.00;61981.06;5110711;28;20932;-70
2023/10/25 21:49:03;;;;;;;30.58;7.15;;;;;;;-146.42;100.00;61981.06;5111760;28;20219;-71
2023/10/25 21:51:29;;;;;;;23.17;5.25;;;;;;;-146.42;100.00;61981.06;5108434;27;20181;-70
2023/10/25 21:53:54;;;;;;;28.23;5.40;;;;;;;-146.42;100.00;61981.06;5111077;28;20179;-70
2023/10/25 21:56:19;;;;;;;29.83;6.57;;;;;;;-146.42;100.00;61981.06;5111888;28;21187;-71
2023/10/25 21:58:45;;;;;;;34.15;6.28;;;;;;;-146.42;100.00;61981.06;5094730;28;20180;-71
2023/10/25 22:01:10;;;;;;;29.43;6.57;;;;;;;-146.42;100.00;61981.06;5112264;28;20414;-71
2023/10/25 22:03:36;;;;;;;21.88;4.57;;;;;;;-146.42;100.00;61981.06;5112705;28;20264;-70
2023/10/25 22:06:01;;;;;;;15.70;3.17;;;;;;;-146.42;100.00;61981.06;5110905;28;20409;-70
2023/10/25 22:08:27;;;;;;;7.20;2.20;;;;;;;-146.42;100.00;61981.06;5111728;28;20778;-70
